createdAt,value
2023-02-06T00:03:17.516Z,-3.87
2023-02-06T00:08:22.176Z,-3.87
2023-02-06T00:13:27.726Z,-3.81
2023-02-06T00:18:32.783Z,-3.77
2023-02-06T00:23:37.354Z,-3.88
2023-02-06T00:28:42.873Z,-3.81
2023-02-06T00:33:47.685Z,-3.85
2023-02-06T00:38:52.247Z,-3.77
2023-02-06T00:43:58.739Z,-3.77
2023-02-06T00:49:03.397Z,-3.84
2023-02-06T00:54:08.456Z,-3.84
2023-02-06T00:59:14.501Z,-4.13
2023-02-06T01:04:18.929Z,-4.15
2023-02-06T01:09:22.913Z,-4.14
2023-02-06T01:14:28.592Z,-4.38
2023-02-06T01:19:33.309Z,-4.39
2023-02-06T01:24:38.082Z,-4.33
2023-02-06T01:29:43.677Z,-4.47
2023-02-06T01:34:48.624Z,-4.62
2023-02-06T01:39:52.910Z,-4.57
2023-02-06T01:45:43.269Z,-4.43
2023-02-06T01:50:52.665Z,-4.42
2023-02-06T01:56:02.111Z,-4.37
2023-02-06T02:01:09.445Z,-4.52
2023-02-06T02:06:17.436Z,-4.53
2023-02-06T02:11:24.845Z,-4.62
2023-02-06T02:16:44.949Z,-4.69
2023-02-06T02:22:32.805Z,-4.75
2023-02-06T02:28:18.931Z,-4.78
2023-02-06T02:33:56.221Z,-4.56
2023-02-06T02:39:10.604Z,-4.43
2023-02-06T02:44:27.436Z,-4.47
2023-02-06T02:49:36.608Z,-4.51
2023-02-06T02:54:42.872Z,-4.43
2023-02-06T02:59:50.428Z,-4.49
2023-02-06T03:04:58.924Z,-4.51
2023-02-06T03:10:19.347Z,-4.46
2023-02-06T03:15:31.199Z,-4.46
2023-02-06T03:20:40.116Z,-4.34
2023-02-06T03:25:48.775Z,-4.44
2023-02-06T03:30:57.340Z,-4.62
2023-02-06T03:36:03.738Z,-4.52
2023-02-06T03:41:10.056Z,-4.47
2023-02-06T03:46:16.858Z,-4.53
2023-02-06T03:51:26.678Z,-4.63
2023-02-06T03:56:38.118Z,-4.42
2023-02-06T04:01:45.570Z,-4.57
2023-02-06T04:06:50.031Z,-4.40
2023-02-06T04:11:55.791Z,-4.48
2023-02-06T04:16:59.925Z,-4.36
2023-02-06T04:22:04.861Z,-4.33
2023-02-06T04:27:12.473Z,-4.29
2023-02-06T04:32:16.782Z,-4.31
2023-02-06T04:37:21.039Z,-4.29
2023-02-06T04:42:27.292Z,-4.46
2023-02-06T04:47:31.435Z,-4.40
2023-02-06T04:52:35.683Z,-4.36
2023-02-06T04:57:41.283Z,-4.39
2023-02-06T05:02:45.406Z,-4.34
2023-02-06T05:07:49.842Z,-4.40
2023-02-06T05:12:56.358Z,-4.37
2023-02-06T05:18:00.691Z,-4.29
2023-02-06T05:23:04.933Z,-4.23
2023-02-06T05:28:11.004Z,-4.21
2023-02-06T05:33:15.547Z,-4.11
2023-02-06T05:38:20.462Z,-4.12
2023-02-06T05:43:26.694Z,-4.16
2023-02-06T05:48:31.168Z,-4.07
2023-02-06T05:53:35.669Z,-4.07
2023-02-06T05:58:41.485Z,-4.06
2023-02-06T06:03:45.685Z,-4.11
2023-02-06T06:08:49.990Z,-4.12
2023-02-06T06:13:55.439Z,-4.09
2023-02-06T06:18:59.945Z,-4.07
2023-02-06T06:24:05.021Z,-4.06
2023-02-06T06:29:10.707Z,-3.99
2023-02-06T06:34:15.085Z,-3.97
2023-02-06T06:39:19.405Z,-3.97
2023-02-06T06:44:25.650Z,-3.87
2023-02-06T06:49:30.126Z,-3.91
2023-02-06T06:54:34.710Z,-3.85
2023-02-06T06:59:40.686Z,-3.83
2023-02-06T07:04:45.242Z,-3.75
2023-02-06T07:09:50.077Z,-3.67
2023-02-06T07:14:55.927Z,-3.64
2023-02-06T07:20:00.527Z,-3.51
2023-02-06T07:25:05.812Z,-3.47
2023-02-06T07:30:13.261Z,-3.35
2023-02-06T07:35:18.002Z,-3.27
2023-02-06T07:40:23.364Z,-3.36
2023-02-06T07:45:29.925Z,-3.10
2023-02-06T07:50:34.233Z,-3.04
2023-02-06T07:55:39.266Z,-3.07
2023-02-06T08:00:46.013Z,-3.01
2023-02-06T08:05:50.530Z,-2.90
2023-02-06T08:10:54.734Z,-2.63
2023-02-06T08:16:03.970Z,-2.50
2023-02-06T08:21:12.481Z,-2.27
2023-02-06T08:26:19.461Z,-2.03
2023-02-06T08:31:28.745Z,-2.13
2023-02-06T08:36:34.378Z,-1.98
2023-02-06T08:41:41.072Z,-2.11
2023-02-06T08:46:52.330Z,-1.94
2023-02-06T08:51:58.684Z,-2.04
2023-02-06T08:57:03.462Z,-2.38
2023-02-06T09:02:11.552Z,-2.65
2023-02-06T09:07:17.310Z,-2.12
2023-02-06T09:12:21.815Z,-2.46
2023-02-06T09:17:31.456Z,-2.56
2023-02-06T09:22:35.904Z,-2.67
2023-02-06T09:27:40.263Z,-2.74
2023-02-06T09:32:45.924Z,-2.58
2023-02-06T09:37:50.200Z,-2.31
2023-02-06T09:42:55.635Z,-2.11
2023-02-06T09:48:15.534Z,-1.99
2023-02-06T09:53:31.301Z,-2.25
2023-02-06T09:58:43.477Z,-1.83
2023-02-06T10:04:32.238Z,-1.57
2023-02-06T10:09:45.866Z,-1.58
2023-02-06T10:14:55.279Z,-1.04
2023-02-06T10:20:05.294Z,-0.99
2023-02-06T10:25:22.316Z,-1.06
2023-02-06T10:30:42.364Z,-0.88
2023-02-06T10:36:00.984Z,-0.93
2023-02-06T10:41:14.652Z,-1.11
2023-02-06T10:46:44.032Z,-1.36
2023-02-06T10:51:56.237Z,-0.93
2023-02-06T10:57:03.200Z,-1.12
2023-02-06T11:02:22.637Z,-1.41
2023-02-06T11:07:35.866Z,-0.91
2023-02-06T11:12:44.446Z,-0.88
2023-02-06T11:17:49.300Z,-1.03
2023-02-06T11:22:55.616Z,-1.05
2023-02-06T11:28:01.649Z,-1.42
2023-02-06T11:33:08.900Z,-1.55
2023-02-06T11:38:20.884Z,-1.61
2023-02-06T11:43:28.276Z,-1.79
2023-02-06T11:48:37.721Z,-1.62
2023-02-06T11:53:59.977Z,-1.33
2023-02-06T11:59:08.002Z,-1.24
2023-02-06T12:04:24.645Z,-1.27
2023-02-06T12:09:30.581Z,-1.43
2023-02-06T12:14:42.834Z,-1.21
2023-02-06T12:19:52.984Z,-0.85
2023-02-06T12:25:00.164Z,-1.35
2023-02-06T12:30:23.192Z,-1.23
2023-02-06T12:35:41.206Z,-0.92
2023-02-06T12:40:56.792Z,-0.93
2023-02-06T12:46:09.016Z,-1.09
2023-02-06T12:51:21.455Z,-0.85
2023-02-06T12:56:36.682Z,-0.81
2023-02-06T13:01:50.334Z,-0.84
2023-02-06T13:06:58.869Z,-0.68
2023-02-06T13:12:15.647Z,-0.86
2023-02-06T13:17:23.749Z,-0.77
2023-02-06T13:22:51.046Z,-0.93
2023-02-06T13:27:58.236Z,-0.94
2023-02-06T13:33:15.206Z,-0.87
2023-02-06T13:38:42.513Z,-0.94
2023-02-06T13:43:55.240Z,-1.31
2023-02-06T13:49:48.972Z,-1.30
2023-02-06T13:55:13.595Z,-1.45
2023-02-06T14:00:25.930Z,-1.42
2023-02-06T14:05:42.444Z,-1.56
2023-02-06T14:11:14.640Z,-1.62
2023-02-06T14:16:38.067Z,-1.56
2023-02-06T14:21:51.790Z,-1.68
2023-02-06T14:27:16.353Z,-1.68
2023-02-06T14:32:44.290Z,-1.67
2023-02-06T14:38:22.569Z,-1.77
2023-02-06T14:43:31.529Z,-1.93
2023-02-06T14:48:41.391Z,-1.90
2023-02-06T14:53:54.491Z,-2.00
2023-02-06T14:59:15.237Z,-2.08
2023-02-06T15:04:24.422Z,-2.17
2023-02-06T15:09:32.954Z,-2.29
2023-02-06T15:14:50.797Z,-2.30
2023-02-06T15:19:56.411Z,-2.48
2023-02-06T15:25:24.698Z,-2.51
2023-02-06T15:30:29.929Z,-2.80
2023-02-06T15:35:40.396Z,-2.96
2023-02-06T15:40:48.043Z,-3.16
2023-02-06T15:45:55.849Z,-3.20
2023-02-06T15:51:21.377Z,-3.52
2023-02-06T15:56:30.077Z,-3.97
2023-02-06T16:01:40.048Z,-4.11
2023-02-06T16:06:47.808Z,-4.23
2023-02-06T16:11:56.213Z,-4.41
2023-02-06T16:17:05.665Z,-4.57
2023-02-06T16:22:27.413Z,-4.77
2023-02-06T16:27:35.003Z,-4.60
2023-02-06T16:32:39.429Z,-4.93
2023-02-06T16:37:45.549Z,-5.20
2023-02-06T16:42:50.119Z,-5.06
2023-02-06T16:47:55.831Z,-5.33
2023-02-06T16:53:02.905Z,-5.60
2023-02-06T16:58:07.940Z,-5.76
2023-02-06T17:03:16.160Z,-5.64
2023-02-06T17:08:25.369Z,-5.88
2023-02-06T17:13:29.953Z,-6.00
2023-02-06T17:18:34.338Z,-6.12
2023-02-06T17:23:40.162Z,-6.16
2023-02-06T17:28:45.557Z,-6.17
2023-02-06T17:33:50.221Z,-6.36
2023-02-06T17:38:56.021Z,-6.36
2023-02-06T17:44:00.724Z,-6.35
2023-02-06T17:49:05.679Z,-6.55
2023-02-06T17:54:12.396Z,-6.57
2023-02-06T17:59:17.035Z,-6.67
2023-02-06T18:04:21.440Z,-6.70
2023-02-06T18:09:27.665Z,-6.87
2023-02-06T18:14:32.310Z,-6.95
2023-02-06T18:19:42.355Z,-6.90
2023-02-06T18:24:50.068Z,-6.90
2023-02-06T18:29:55.320Z,-7.22
2023-02-06T18:35:00.128Z,-7.29
2023-02-06T18:40:06.911Z,-7.27
2023-02-06T18:45:11.640Z,-7.19
2023-02-06T18:50:16.955Z,-7.17
2023-02-06T18:55:22.936Z,-7.29
2023-02-06T19:00:27.465Z,-7.25
2023-02-06T19:05:35.953Z,-7.36
2023-02-06T19:10:42.518Z,-7.29
2023-02-06T19:15:46.928Z,-7.44
2023-02-06T19:20:51.336Z,-7.56
2023-02-06T19:25:57.285Z,-7.64
2023-02-06T19:31:02.083Z,-7.67
2023-02-06T19:36:13.301Z,-7.63
2023-02-06T19:41:23.810Z,-7.56
2023-02-06T19:46:28.833Z,-7.60
2023-02-06T19:51:36.227Z,-7.31
2023-02-06T19:56:45.211Z,-7.61
2023-02-06T20:01:53.636Z,-7.55
2023-02-06T20:06:58.463Z,-7.62
2023-02-06T20:12:04.832Z,-7.62
2023-02-06T20:17:09.093Z,-7.66
2023-02-06T20:22:13.620Z,-7.65
2023-02-06T20:27:19.138Z,-7.83
2023-02-06T20:32:24.515Z,-7.80
2023-02-06T20:37:28.961Z,-7.76
2023-02-06T20:42:36.778Z,-7.83
2023-02-06T20:47:41.159Z,-7.72
2023-02-06T20:52:45.539Z,-7.73
2023-02-06T20:57:51.116Z,-7.85
2023-02-06T21:02:55.481Z,-7.77
2023-02-06T21:07:59.972Z,-7.84
2023-02-06T21:13:07.471Z,-7.74
2023-02-06T21:18:11.703Z,-7.77
2023-02-06T21:23:15.903Z,-7.70
2023-02-06T21:28:21.809Z,-7.73
2023-02-06T21:33:26.209Z,-7.65
2023-02-06T21:38:31.016Z,-7.51
2023-02-06T21:43:36.636Z,-7.60
2023-02-06T21:48:41.906Z,-7.65
2023-02-06T21:53:46.743Z,-7.60
2023-02-06T21:58:52.752Z,-7.52
2023-02-06T22:03:58.193Z,-7.49
2023-02-06T22:09:08.588Z,-7.58
2023-02-06T22:14:17.094Z,-7.43
2023-02-06T22:19:21.261Z,-7.42
2023-02-06T22:24:25.762Z,-7.49
2023-02-06T22:29:31.365Z,-7.36
2023-02-06T22:34:35.977Z,-7.37
2023-02-06T22:39:40.390Z,-7.70
2023-02-06T22:44:46.284Z,-7.65
2023-02-06T22:49:53.019Z,-7.44
2023-02-06T22:54:57.403Z,-7.73
2023-02-06T23:00:03.141Z,-7.59
2023-02-06T23:05:09.449Z,-7.53
2023-02-06T23:10:13.792Z,-7.66
2023-02-06T23:15:19.853Z,-7.71
2023-02-06T23:20:24.482Z,-7.72
2023-02-06T23:25:29.152Z,-7.72
2023-02-06T23:30:35.556Z,-7.85
2023-02-06T23:35:41.236Z,-7.82
2023-02-06T23:40:46.646Z,-7.84
2023-02-06T23:45:52.145Z,-7.88
2023-02-06T23:50:56.425Z,-7.98
2023-02-06T23:56:01.110Z,-8.03
